Time;durP1;ratioP1;P1;durP2;ratioP2;P2;SDS_P1;SDS_P2;PMS_P1;PMS_P2;Temp;Humidity;BMP_temperature;BMP_pressure;BME280_temperature;BME280_humidity;BME280_pressure;Samples;Min_cycle;Max_cycle;Signal;HPM_P1;HPM_P2
2022/02/18 00:02:18;;;;;;;5.85;4.82;;;11.20;62.70;;;;;;4939289;28;20067;-82
2022/02/18 00:04:43;;;;;;;6.40;5.10;;;11.20;62.60;;;;;;4939697;28;20035;-82
2022/02/18 00:07:09;;;;;;;6.35;5.38;;;11.20;62.70;;;;;;4938698;28;20113;-83
2022/02/18 00:09:36;;;;;;;6.40;5.00;;;11.20;62.70;;;;;;4939286;28;20477;-82
2022/02/18 00:12:02;;;;;;;5.07;4.57;;;11.20;62.70;;;;;;4939175;28;20134;-82
2022/02/18 00:14:28;;;;;;;5.75;4.93;;;11.20;62.60;;;;;;4938451;28;20078;-83
2022/02/18 00:16:54;;;;;;;6.57;5.00;;;11.20;62.60;;;;;;4938738;28;20427;-82
2022/02/18 00:19:20;;;;;;;6.05;4.85;;;11.20;62.70;;;;;;4937031;29;20039;-81
2022/02/18 00:21:48;;;;;;;5.35;4.53;;;11.20;62.70;;;;;;4939060;28;20086;-83
2022/02/18 00:24:14;;;;;;;6.95;4.72;;;11.20;62.60;;;;;;4939617;29;20046;-83
2022/02/18 00:26:40;;;;;;;5.88;4.82;;;11.30;62.80;;;;;;4937428;29;20789;-81
2022/02/18 00:29:07;;;;;;;5.90;4.63;;;11.20;62.70;;;;;;4953407;28;20076;-81
2022/02/18 00:31:32;;;;;;;5.75;5.15;;;11.20;62.70;;;;;;4937368;28;20048;-82
2022/02/18 00:34:00;;;;;;;6.00;4.97;;;11.30;62.90;;;;;;4936744;29;20066;-81
2022/02/18 00:36:26;;;;;;;6.47;4.82;;;11.30;62.80;;;;;;4920882;29;20490;-82
2022/02/18 00:38:52;;;;;;;5.80;4.65;;;11.30;62.90;;;;;;4936571;29;20056;-81
2022/02/18 00:41:18;;;;;;;5.65;4.88;;;11.20;62.70;;;;;;4938861;28;20165;-82
2022/02/18 00:43:44;;;;;;;5.32;4.43;;;11.20;62.70;;;;;;4941298;28;20091;-82
2022/02/18 00:46:10;;;;;;;6.00;5.40;;;11.30;62.80;;;;;;4936495;29;20422;-83
2022/02/18 00:48:36;;;;;;;5.53;4.50;;;11.20;62.80;;;;;;4941541;28;20360;-82
2022/02/18 00:51:02;;;;;;;6.03;4.82;;;11.30;62.90;;;;;;4920831;29;20098;-82
2022/02/18 00:53:28;;;;;;;6.05;4.78;;;11.20;62.80;;;;;;4953979;28;20051;-84
2022/02/18 00:55:54;;;;;;;5.28;4.32;;;11.30;62.90;;;;;;4934480;28;20435;-82
2022/02/18 00:58:20;;;;;;;5.78;4.88;;;11.20;62.90;;;;;;4951095;28;20035;-80
2022/02/18 01:00:50;;;;;;;5.05;4.55;;;11.30;62.80;;;;;;4953185;28;20399;-81
2022/02/18 01:03:17;;;;;;;4.50;4.07;;;11.30;62.90;;;;;;4937765;29;20054;-82
2022/02/18 01:05:43;;;;;;;5.00;4.50;;;11.30;63.00;;;;;;4937671;28;20049;-82
2022/02/18 01:08:12;;;;;;;5.00;4.50;;;11.20;62.90;;;;;;4937114;29;20035;-82
2022/02/18 01:10:37;;;;;;;7.30;4.47;;;11.30;62.90;;;;;;4941618;28;20395;-82
2022/02/18 01:13:06;;;;;;;5.93;4.40;;;11.30;62.80;;;;;;4937666;28;20052;-82
2022/02/18 01:15:32;;;;;;;5.07;4.53;;;11.20;62.80;;;;;;4938629;28;20041;-82
2022/02/18 01:17:58;;;;;;;5.55;4.53;;;11.20;62.70;;;;;;4938392;29;20120;-82
2022/02/18 01:20:24;;;;;;;6.22;4.60;;;11.30;62.80;;;;;;4953086;28;20203;-81
2022/02/18 01:22:50;;;;;;;5.22;4.50;;;11.20;62.80;;;;;;4920462;29;20038;-83
2022/02/18 01:25:16;;;;;;;6.22;4.53;;;11.30;62.80;;;;;;4952566;28;20496;-82
2022/02/18 01:27:43;;;;;;;5.40;4.70;;;11.30;62.80;;;;;;4937506;28;20027;-82
2022/02/18 01:30:10;;;;;;;7.18;4.75;;;11.30;62.80;;;;;;4937479;29;20059;-83
2022/02/18 01:32:37;;;;;;;4.70;4.20;;;11.20;62.80;;;;;;4936912;28;20630;-82
2022/02/18 01:35:03;;;;;;;5.38;4.05;;;11.30;62.80;;;;;;4936845;29;20510;-82
2022/02/18 01:37:29;;;;;;;6.10;4.93;;;11.30;62.80;;;;;;4940912;28;20051;-82
2022/02/18 01:39:56;;;;;;;4.40;3.90;;;11.30;62.80;;;;;;4952867;28;20057;-80
2022/02/18 01:42:22;;;;;;;6.90;4.43;;;11.20;62.80;;;;;;4937072;29;20094;-82
2022/02/18 01:44:50;;;;;;;5.57;4.30;;;11.30;62.80;;;;;;4952482;28;20175;-81
2022/02/18 01:47:25;;;;;;;5.20;4.25;;;11.30;62.80;;;;;;4938015;28;20139;-82
2022/02/18 01:49:58;;;;;;;5.03;4.32;;;11.30;62.90;;;;;;4938271;29;20065;-82
2022/02/18 01:52:33;;;;;;;5.63;4.22;;;11.30;62.90;;;;;;4937375;29;20031;-83
2022/02/18 01:55:07;;;;;;;4.97;4.40;;;11.30;62.90;;;;;;4939564;29;20043;-83
2022/02/18 01:57:33;;;;;;;6.80;5.10;;;11.30;62.90;;;;;;4935953;28;20067;-84
2022/02/18 01:59:59;;;;;;;5.00;4.38;;;11.30;62.90;;;;;;4936392;29;20512;-86
2022/02/18 02:02:25;;;;;;;6.30;4.80;;;11.30;62.90;;;;;;4938347;28;20036;-86
2022/02/18 02:04:51;;;;;;;6.10;4.53;;;11.30;62.90;;;;;;4938590;28;20031;-86
2022/02/18 02:07:23;;;;;;;4.72;4.22;;;11.30;62.90;;;;;;4935912;28;20965;-83
2022/02/18 02:09:49;;;;;;;5.05;4.25;;;11.30;62.80;;;;;;4941513;28;20127;-85
2022/02/18 02:12:15;;;;;;;5.07;4.28;;;11.30;62.90;;;;;;4944654;29;20131;-85
2022/02/18 02:14:44;;;;;;;5.45;4.22;;;11.30;62.90;;;;;;4938309;29;20035;-84
2022/02/18 02:17:10;;;;;;;6.60;4.57;;;11.30;63.00;;;;;;4939456;29;20027;-83
2022/02/18 02:19:36;;;;;;;4.95;4.45;;;11.30;63.00;;;;;;4939664;29;20090;-83
2022/02/18 02:22:03;;;;;;;6.30;4.57;;;11.30;63.00;;;;;;4922793;29;20131;-85
2022/02/18 02:24:29;;;;;;;5.68;4.57;;;11.30;63.00;;;;;;4927657;29;20118;-83
2022/02/18 02:26:56;;;;;;;5.68;5.07;;;11.30;62.90;;;;;;4922840;29;20052;-83
2022/02/18 02:29:22;;;;;;;5.95;5.03;;;11.30;63.00;;;;;;4939851;28;20040;-84
2022/02/18 02:31:49;;;;;;;5.78;4.75;;;11.30;63.60;;;;;;4955289;28;20035;-85
2022/02/18 02:34:15;;;;;;;5.88;4.90;;;11.30;63.00;;;;;;4956005;28;20118;-84
2022/02/18 02:36:43;;;;;;;6.00;4.90;;;11.30;63.00;;;;;;4928072;28;20466;-85
2022/02/18 02:39:10;;;;;;;7.10;5.25;;;11.30;63.10;;;;;;4930215;29;20038;-87
2022/02/18 02:41:37;;;;;;;6.10;4.93;;;11.30;63.00;;;;;;4945699;29;20035;-88
2022/02/18 02:44:05;;;;;;;6.40;5.15;;;11.30;63.00;;;;;;4956799;28;20035;-87
2022/02/18 02:46:37;;;;;;;5.63;5.00;;;11.30;63.00;;;;;;4938144;29;20062;-86
2022/02/18 02:49:15;;;;;;;5.88;4.97;;;11.30;63.00;;;;;;4954753;28;20051;-88
2022/02/18 02:51:42;;;;;;;8.40;6.22;;;11.30;63.00;;;;;;4939047;29;20039;-86
2022/02/18 02:54:08;;;;;;;6.35;5.47;;;11.30;63.10;;;;;;4944832;29;20040;-84
2022/02/18 02:56:34;;;;;;;6.90;5.45;;;11.30;63.10;;;;;;4944411;28;20067;-83
2022/02/18 02:59:01;;;;;;;8.98;5.20;;;11.30;63.70;;;;;;4954100;28;20039;-83
2022/02/18 03:01:37;;;;;;;6.18;5.28;;;11.30;63.10;;;;;;4942476;29;20031;-83
2022/02/18 03:04:03;;;;;;;7.88;5.25;;;11.30;63.20;;;;;;4939126;29;20043;-83
2022/02/18 03:06:30;;;;;;;7.15;5.10;;;11.30;63.10;;;;;;4942748;29;20035;-85
2022/02/18 03:08:58;;;;;;;5.63;4.95;;;11.30;63.10;;;;;;4927311;29;20040;-85
2022/02/18 03:11:32;;;;;;;;;;;11.30;63.10;;;;;;4938752;29;20913;-84
2022/02/18 03:14:16;;;;;;;7.20;4.80;;;11.30;63.10;;;;;;4938637;28;20041;-83
2022/02/18 03:16:52;;;;;;;8.60;5.47;;;11.30;63.10;;;;;;4923545;29;20055;-84
2022/02/18 03:19:20;;;;;;;6.40;5.15;;;11.30;63.10;;;;;;4957598;28;20066;-83
2022/02/18 03:21:46;;;;;;;5.75;5.15;;;11.30;62.60;;;;;;4953368;28;20036;-87
2022/02/18 03:24:12;;;;;;;6.88;5.43;;;11.30;63.10;;;;;;4922591;29;20503;-86
2022/02/18 03:26:38;;;;;;;6.85;5.50;;;11.30;63.20;;;;;;4937086;28;20039;-87
2022/02/18 03:29:09;;;;;;;8.18;6.10;;;11.30;63.20;;;;;;4921898;29;20499;-86
2022/02/18 03:31:56;;;;;;;8.07;5.63;;;11.30;63.20;;;;;;4937296;29;20035;-86
2022/02/18 03:34:22;;;;;;;9.90;6.47;;;11.30;63.20;;;;;;4938921;28;20051;-86
2022/02/18 03:36:48;;;;;;;8.05;6.13;;;11.30;63.20;;;;;;4953637;28;20035;-86
2022/02/18 03:39:16;;;;;;;7.90;5.90;;;11.30;63.20;;;;;;4940944;29;20043;-85
2022/02/18 03:41:43;;;;;;;8.40;6.60;;;11.30;63.20;;;;;;4938094;29;20079;-78
2022/02/18 03:44:10;;;;;;;7.25;5.90;;;11.30;63.10;;;;;;4912136;29;20040;-77
2022/02/18 03:46:51;;;;;;;8.10;6.15;;;11.30;63.20;;;;;;4937692;29;20032;-83
2022/02/18 03:49:16;;;;;;;8.63;6.43;;;11.30;63.20;;;;;;4875621;29;20050;-80
2022/02/18 03:51:42;;;;;;;8.10;6.43;;;11.30;63.30;;;;;;4924481;29;20483;-82
2022/02/18 03:54:09;;;;;;;8.98;6.00;;;11.30;63.20;;;;;;4936482;29;20028;-79
2022/02/18 03:56:38;;;;;;;7.88;6.60;;;11.30;63.20;;;;;;4938118;28;20312;-83
2022/02/18 03:59:05;;;;;;;9.55;6.57;;;11.30;63.20;;;;;;4895250;29;20119;-80
2022/02/18 04:01:32;;;;;;;8.80;6.47;;;11.30;63.20;;;;;;4905678;29;20494;-80
2022/02/18 04:03:58;;;;;;;9.10;6.15;;;11.30;63.10;;;;;;4911103;29;20060;-83
2022/02/18 04:06:39;;;;;;;9.50;6.50;;;11.30;63.20;;;;;;4921108;29;20045;-82
2022/02/18 04:09:09;;;;;;;8.85;6.90;;;11.30;63.20;;;;;;4909836;29;20027;-81
2022/02/18 04:11:57;;;;;;;8.18;6.15;;;11.30;63.20;;;;;;4916788;29;20040;-81
2022/02/18 04:14:26;;;;;;;7.43;6.38;;;11.30;63.20;;;;;;4941170;28;20089;-81
2022/02/18 04:17:02;;;;;;;7.47;6.32;;;11.40;63.20;;;;;;4920429;29;20479;-82
2022/02/18 04:19:31;;;;;;;9.18;6.88;;;11.30;63.10;;;;;;4938896;28;20036;-81
2022/02/18 04:21:58;;;;;;;8.50;6.28;;;11.30;63.20;;;;;;4921662;29;20566;-81
2022/02/18 04:24:37;;;;;;;10.30;6.65;;;11.30;63.20;;;;;;4937769;28;20091;-78
2022/02/18 04:27:04;;;;;;;8.85;6.45;;;11.30;63.20;;;;;;4921949;29;20036;-78
2022/02/18 04:29:30;;;;;;;9.43;7.00;;;11.30;63.80;;;;;;4923279;29;20047;-78
2022/02/18 04:31:56;;;;;;;8.95;6.43;;;11.30;63.20;;;;;;4922200;29;20028;-78
2022/02/18 04:34:22;;;;;;;7.53;5.80;;;11.30;63.20;;;;;;4921284;29;20422;-79
2022/02/18 04:36:47;;;;;;;7.75;5.93;;;11.30;63.20;;;;;;4910624;29;20119;-78
2022/02/18 04:39:13;;;;;;;9.40;6.60;;;11.30;63.20;;;;;;4922466;29;20394;-78
2022/02/18 04:41:39;;;;;;;7.47;6.18;;;11.30;63.20;;;;;;4922700;29;20039;-77
2022/02/18 04:44:05;;;;;;;8.02;6.05;;;11.30;63.20;;;;;;4923183;29;20103;-78
2022/02/18 04:46:32;;;;;;;8.15;6.10;;;11.30;63.30;;;;;;4923502;29;20414;-79
2022/02/18 04:48:58;;;;;;;8.00;5.88;;;11.30;63.20;;;;;;4938177;29;20155;-79
2022/02/18 04:51:24;;;;;;;7.55;5.68;;;11.30;63.30;;;;;;4938771;29;20040;-79
2022/02/18 04:53:50;;;;;;;7.75;6.25;;;11.30;63.20;;;;;;4935215;29;20040;-80
2022/02/18 04:56:16;;;;;;;9.30;6.20;;;11.30;63.30;;;;;;4924200;29;20086;-80
2022/02/18 04:58:42;;;;;;;9.27;6.47;;;11.30;63.30;;;;;;4920156;29;20043;-81
2022/02/18 05:01:12;;;;;;;7.00;5.40;;;11.30;63.40;;;;;;4906952;29;20047;-81
2022/02/18 05:03:39;;;;;;;8.05;5.78;;;11.30;63.40;;;;;;4922913;28;20075;-80
2022/02/18 05:06:05;;;;;;;6.97;5.78;;;11.30;63.40;;;;;;4906969;29;20035;-80
2022/02/18 05:08:32;;;;;;;7.40;5.72;;;11.30;63.40;;;;;;4938549;28;20048;-81
2022/02/18 05:10:58;;;;;;;6.68;5.07;;;11.30;63.40;;;;;;4935640;28;20063;-82
2022/02/18 05:13:25;;;;;;;6.75;5.43;;;11.30;63.30;;;;;;4937839;28;20047;-82
2022/02/18 05:15:51;;;;;;;6.55;5.38;;;11.30;63.30;;;;;;4907499;29;20048;-81
2022/02/18 05:18:17;;;;;;;9.20;6.25;;;11.40;63.30;;;;;;4923419;29;20043;-81
2022/02/18 05:20:43;;;;;;;7.15;6.40;;;11.30;63.30;;;;;;4907490;29;20043;-82
2022/02/18 05:23:09;;;;;;;7.40;5.88;;;11.30;63.40;;;;;;4905970;29;20138;-84
2022/02/18 05:25:36;;;;;;;7.35;5.55;;;11.30;63.50;;;;;;4923401;29;20498;-81
2022/02/18 05:28:04;;;;;;;7.60;5.72;;;11.30;63.40;;;;;;4923065;29;20040;-83
2022/02/18 05:30:30;;;;;;;10.15;5.95;;;11.30;63.50;;;;;;4923950;29;20055;-79
2022/02/18 05:32:56;;;;;;;8.45;6.07;;;11.40;63.50;;;;;;4921250;29;20043;-80
2022/02/18 05:35:22;;;;;;;7.07;5.65;;;11.40;63.70;;;;;;4921962;29;20090;-79
2022/02/18 05:37:48;;;;;;;7.70;5.78;;;11.40;63.70;;;;;;4927403;29;20586;-80
2022/02/18 05:40:14;;;;;;;7.03;5.35;;;11.40;63.70;;;;;;4936855;29;20569;-79
2022/02/18 05:42:41;;;;;;;8.50;5.68;;;11.40;63.70;;;;;;4936224;28;20071;-83
2022/02/18 05:45:11;;;;;;;7.25;5.25;;;11.30;63.90;;;;;;4936890;29;20419;-82
2022/02/18 05:47:39;;;;;;;7.22;5.85;;;11.30;63.90;;;;;;4937386;29;20055;-80
2022/02/18 05:50:09;;;;;;;9.77;6.32;;;11.40;64.00;;;;;;4936333;29;20069;-82
2022/02/18 05:52:35;;;;;;;8.30;6.00;;;11.40;64.10;;;;;;4943031;29;20039;-80
2022/02/18 05:55:03;;;;;;;7.10;5.68;;;11.40;64.30;;;;;;4922733;29;20040;-82
2022/02/18 05:57:29;;;;;;;7.78;5.70;;;11.40;64.30;;;;;;4938456;29;20042;-80
2022/02/18 05:59:54;;;;;;;8.43;5.85;;;11.40;64.30;;;;;;4938543;29;20129;-81
2022/02/18 06:02:20;;;;;;;9.77;7.03;;;11.40;64.30;;;;;;4937668;28;20450;-81
2022/02/18 06:04:46;;;;;;;11.52;7.38;;;11.40;64.30;;;;;;4937245;29;20079;-81
2022/02/18 06:07:15;;;;;;;9.75;6.43;;;11.40;64.30;;;;;;4936167;28;20062;-81
2022/02/18 06:09:41;;;;;;;9.48;6.13;;;11.40;64.10;;;;;;4953688;28;20058;-80
2022/02/18 06:12:07;;;;;;;10.50;7.07;;;11.40;64.10;;;;;;4936639;29;20171;-84
2022/02/18 06:14:33;;;;;;;10.57;7.00;;;11.40;64.10;;;;;;4955154;28;20138;-84
2022/02/18 06:16:59;;;;;;;12.35;7.57;;;11.40;65.20;;;;;;4936715;28;20102;-83
2022/02/18 06:19:25;;;;;;;8.30;6.70;;;11.40;66.10;;;;;;4936059;29;20145;-83
2022/02/18 06:21:51;;;;;;;11.85;7.10;;;11.40;66.60;;;;;;4936626;29;20031;-85
2022/02/18 06:24:17;;;;;;;10.30;6.97;;;11.30;66.90;;;;;;4936735;29;20036;-82
2022/02/18 06:26:43;;;;;;;20.80;7.18;;;11.30;67.30;;;;;;4937701;29;20544;-86
2022/02/18 06:29:10;;;;;;;9.60;6.90;;;11.20;67.40;;;;;;4937283;28;20160;-84
2022/02/18 06:31:37;;;;;;;9.40;7.45;;;11.20;67.60;;;;;;4901325;29;20491;-82
2022/02/18 06:34:03;;;;;;;10.18;7.07;;;11.20;67.70;;;;;;4921347;28;20527;-85
2022/02/18 06:36:29;;;;;;;8.00;6.65;;;11.20;67.70;;;;;;4919387;29;20039;-83
2022/02/18 06:38:55;;;;;;;10.10;6.65;;;11.20;67.50;;;;;;4935694;28;20100;-86
2022/02/18 06:41:21;;;;;;;9.50;6.30;;;11.10;67.60;;;;;;4933384;29;20051;-83
2022/02/18 06:43:47;;;;;;;7.90;6.10;;;11.10;67.60;;;;;;4934833;28;20525;-84
2022/02/18 06:46:13;;;;;;;8.35;6.10;;;11.10;67.80;;;;;;4936418;28;20039;-84
2022/02/18 06:48:39;;;;;;;10.85;6.75;;;11.10;67.70;;;;;;4936106;28;20499;-83
2022/02/18 06:51:07;;;;;;;8.30;6.05;;;11.10;67.80;;;;;;4937441;29;20095;-83
2022/02/18 06:53:33;;;;;;;8.45;5.97;;;11.00;67.80;;;;;;4937434;28;20035;-83
2022/02/18 06:56:00;;;;;;;9.55;6.60;;;11.00;67.70;;;;;;4952895;28;20027;-84
2022/02/18 06:58:26;;;;;;;7.88;6.25;;;11.00;67.70;;;;;;4939956;29;20032;-84
2022/02/18 07:00:52;;;;;;;7.15;5.78;;;11.00;67.60;;;;;;4939669;28;20527;-82
2022/02/18 07:03:22;;;;;;;7.82;5.72;;;11.00;67.60;;;;;;4940354;28;20075;-84
2022/02/18 07:05:49;;;;;;;8.73;5.70;;;11.00;67.60;;;;;;4939612;29;20071;-86
2022/02/18 07:08:16;;;;;;;7.45;5.97;;;11.00;67.60;;;;;;4937828;29;20078;-86
2022/02/18 07:10:42;;;;;;;7.85;5.55;;;11.00;67.60;;;;;;4940828;29;20541;-86
2022/02/18 07:13:09;;;;;;;13.98;8.25;;;11.00;67.50;;;;;;4937895;29;20534;-85
2022/02/18 07:15:36;;;;;;;10.02;6.70;;;11.00;67.60;;;;;;4939500;29;20130;-83
2022/02/18 07:18:02;;;;;;;10.35;7.47;;;11.00;67.60;;;;;;4939676;28;20031;-84
2022/02/18 07:20:29;;;;;;;8.50;7.45;;;11.00;67.60;;;;;;4939039;29;20427;-85
2022/02/18 07:22:55;;;;;;;7.97;6.20;;;11.00;67.60;;;;;;4939007;29;20027;-85
2022/02/18 07:25:22;;;;;;;7.40;5.93;;;11.00;67.60;;;;;;4937760;29;20122;-83
2022/02/18 07:27:49;;;;;;;11.32;6.28;;;10.90;67.50;;;;;;4938387;29;20032;-83
2022/02/18 07:30:15;;;;;;;9.18;5.88;;;11.00;67.60;;;;;;4939737;29;20046;-84
2022/02/18 07:32:43;;;;;;;8.25;5.50;;;11.00;67.60;;;;;;4938700;29;20094;-83
2022/02/18 07:35:10;;;;;;;6.72;5.20;;;10.90;67.60;;;;;;4939378;28;20036;-83
2022/02/18 07:37:36;;;;;;;7.90;5.50;;;10.90;67.50;;;;;;4938102;29;20077;-82
2022/02/18 07:40:02;;;;;;;6.75;5.53;;;10.90;67.40;;;;;;4940132;29;20028;-83
2022/02/18 07:42:28;;;;;;;10.88;6.10;;;11.00;67.60;;;;;;4954118;28;20039;-84
2022/02/18 07:44:54;;;;;;;7.82;5.60;;;11.00;67.60;;;;;;4938639;29;20517;-84
2022/02/18 07:47:20;;;;;;;6.38;5.45;;;11.00;67.80;;;;;;4938575;28;20122;-85
2022/02/18 07:49:47;;;;;;;9.00;5.85;;;10.90;67.60;;;;;;4937618;29;20466;-85
2022/02/18 07:52:15;;;;;;;8.18;5.75;;;11.00;67.60;;;;;;4938471;28;20046;-83
2022/02/18 07:54:42;;;;;;;7.13;5.47;;;11.00;67.60;;;;;;4937372;29;20039;-85
2022/02/18 07:57:08;;;;;;;7.95;5.32;;;11.00;67.70;;;;;;4939965;28;20443;-84
2022/02/18 07:59:34;;;;;;;7.53;5.50;;;11.00;68.30;;;;;;4953261;28;20046;-85
2022/02/18 08:02:00;;;;;;;6.63;4.75;;;11.00;67.70;;;;;;4938388;28;20047;-84
2022/02/18 08:04:26;;;;;;;6.97;5.28;;;10.90;67.60;;;;;;4938732;29;20035;-83
2022/02/18 08:06:52;;;;;;;5.55;4.95;;;11.00;67.70;;;;;;4937558;28;20102;-84
2022/02/18 08:09:18;;;;;;;7.50;4.55;;;11.00;67.80;;;;;;4938094;29;20474;-84
2022/02/18 08:11:45;;;;;;;5.43;3.83;;;10.90;67.60;;;;;;4937429;29;20034;-85
2022/02/18 08:14:11;;;;;;;4.25;3.17;;;10.90;67.30;;;;;;4940512;29;20044;-85
2022/02/18 08:16:38;;;;;;;6.50;3.20;;;10.90;66.80;;;;;;4938218;29;20104;-83
2022/02/18 08:19:06;;;;;;;4.50;3.08;;;10.90;66.40;;;;;;4945887;28;20039;-83
2022/02/18 08:21:32;;;;;;;6.35;2.58;;;10.90;66.30;;;;;;4939275;29;20035;-83
2022/02/18 08:23:58;;;;;;;4.07;2.63;;;10.90;66.30;;;;;;4938712;29;20031;-84
2022/02/18 08:26:24;;;;;;;3.13;2.00;;;10.90;66.10;;;;;;4939314;29;20046;-84
2022/02/18 08:28:51;;;;;;;2.72;2.05;;;10.90;66.00;;;;;;4938156;29;20042;-81
2022/02/18 08:31:17;;;;;;;2.53;1.98;;;10.90;65.80;;;;;;4910823;29;20039;-82
2022/02/18 08:33:43;;;;;;;2.42;1.58;;;10.90;65.80;;;;;;4939044;29;20036;-83
2022/02/18 08:36:10;;;;;;;2.28;1.40;;;10.90;66.20;;;;;;4966226;28;20971;-84
2022/02/18 08:38:37;;;;;;;3.25;1.58;;;10.90;65.40;;;;;;4930428;29;20092;-81
2022/02/18 08:41:03;;;;;;;1.65;1.50;;;10.90;65.40;;;;;;4938919;29;20059;-85
2022/02/18 08:43:29;;;;;;;2.15;1.80;;;10.90;65.20;;;;;;4937774;29;20542;-82
2022/02/18 08:45:55;;;;;;;1.98;1.48;;;11.00;65.00;;;;;;4924514;29;20035;-82
2022/02/18 08:48:21;;;;;;;2.50;1.30;;;10.90;65.10;;;;;;4936740;29;20046;-80
2022/02/18 08:50:47;;;;;;;2.92;1.38;;;10.90;65.10;;;;;;4937069;28;20038;-82
2022/02/18 08:53:13;;;;;;;3.30;1.30;;;11.00;65.30;;;;;;4937424;29;20158;-82
2022/02/18 08:55:39;;;;;;;1.88;1.25;;;11.00;65.30;;;;;;4936588;29;20103;-82
2022/02/18 08:58:06;;;;;;;2.10;1.50;;;11.10;65.30;;;;;;4937891;28;20039;-82
2022/02/18 09:00:32;;;;;;;2.63;1.50;;;11.10;65.10;;;;;;4936923;29;20566;-82
2022/02/18 09:02:58;;;;;;;3.33;1.70;;;11.20;65.10;;;;;;4936639;29;20074;-82
2022/02/18 09:05:24;;;;;;;3.25;1.80;;;11.20;65.00;;;;;;4954163;28;20035;-82
2022/02/18 09:07:51;;;;;;;2.10;1.50;;;11.30;65.60;;;;;;4936559;29;20044;-82
2022/02/18 09:10:17;;;;;;;3.13;1.40;;;11.30;64.90;;;;;;4937428;29;20044;-80
2022/02/18 09:12:43;;;;;;;1.90;1.55;;;11.30;64.70;;;;;;4935875;29;20054;-82
2022/02/18 09:15:11;;;;;;;2.83;1.60;;;11.30;64.70;;;;;;4938058;29;20032;-82
2022/02/18 09:17:47;;;;;;;1.63;1.30;;;11.30;64.60;;;;;;4938273;28;20074;-82
2022/02/18 09:20:13;;;;;;;1.55;1.23;;;11.30;64.50;;;;;;4954589;28;20639;-82
2022/02/18 09:22:38;;;;;;;1.63;1.45;;;11.40;64.50;;;;;;4936332;29;20725;-82
2022/02/18 09:25:05;;;;;;;2.08;1.40;;;11.50;64.50;;;;;;4935550;28;20039;-83
2022/02/18 09:27:31;;;;;;;1.70;1.48;;;11.40;64.40;;;;;;4936264;29;20036;-82
2022/02/18 09:29:57;;;;;;;1.52;1.08;;;11.50;64.30;;;;;;4936409;29;20048;-81
2022/02/18 09:32:23;;;;;;;2.75;1.50;;;11.50;64.20;;;;;;4925704;29;20414;-82
2022/02/18 09:34:49;;;;;;;1.63;1.27;;;11.50;64.10;;;;;;4954610;28;20047;-83
2022/02/18 09:37:16;;;;;;;2.03;1.40;;;11.50;64.10;;;;;;4955708;28;20138;-82
2022/02/18 09:39:43;;;;;;;1.52;1.42;;;11.60;64.10;;;;;;4935974;28;20237;-82
2022/02/18 09:42:15;;;;;;;2.10;1.58;;;11.60;64.70;;;;;;4934980;29;20036;-82
2022/02/18 09:44:43;;;;;;;2.45;1.88;;;11.60;64.00;;;;;;4950495;28;20140;-81
2022/02/18 09:47:12;;;;;;;1.58;1.27;;;11.60;63.90;;;;;;4920071;29;20135;-82
2022/02/18 09:49:41;;;;;;;1.40;1.30;;;11.70;64.00;;;;;;4951857;28;20058;-82
2022/02/18 09:52:10;;;;;;;3.17;1.52;;;11.70;63.90;;;;;;4936806;29;20059;-81
2022/02/18 09:54:36;;;;;;;2.50;1.63;;;11.70;63.90;;;;;;4936901;29;20039;-82
2022/02/18 09:57:02;;;;;;;2.17;1.65;;;11.70;63.90;;;;;;4937135;28;20039;-81
2022/02/18 09:59:29;;;;;;;2.63;1.80;;;11.70;63.90;;;;;;4935419;29;20437;-82
2022/02/18 10:01:55;;;;;;;2.42;1.70;;;11.70;63.90;;;;;;4919807;29;20038;-82
2022/02/18 10:04:21;;;;;;;5.78;3.03;;;11.70;63.90;;;;;;4919702;29;20043;-80
2022/02/18 10:06:47;;;;;;;7.25;3.05;;;11.80;64.00;;;;;;4936587;28;20032;-82
2022/02/18 10:09:13;;;;;;;6.75;3.80;;;11.80;64.20;;;;;;4937601;29;20422;-81
2022/02/18 10:11:56;;;;;;;9.13;4.45;;;11.80;64.00;;;;;;4936579;29;20032;-81
2022/02/18 10:14:22;;;;;;;13.75;5.43;;;11.90;64.10;;;;;;4937367;29;20146;-81
2022/02/18 10:16:48;;;;;;;13.55;6.10;;;11.90;64.00;;;;;;4937643;28;20047;-82
2022/02/18 10:19:14;;;;;;;15.45;6.80;;;11.90;64.10;;;;;;4936760;29;20071;-82
2022/02/18 10:21:42;;;;;;;23.42;7.68;;;11.90;64.00;;;;;;4953130;28;20054;-83
2022/02/18 10:24:13;;;;;;;28.35;9.93;;;11.90;64.00;;;;;;4921082;29;20035;-83
2022/02/18 10:26:48;;;;;;;31.60;11.95;;;11.90;64.00;;;;;;4935430;29;20031;-82
2022/02/18 10:29:24;;;;;;;36.78;13.43;;;11.90;64.00;;;;;;4966941;28;20066;-83
2022/02/18 10:32:09;;;;;;;38.88;14.68;;;11.90;64.00;;;;;;4923656;29;20040;-83
2022/02/18 10:34:54;;;;;;;49.03;17.23;;;11.90;64.00;;;;;;4939975;28;20490;-83
2022/02/18 10:37:24;;;;;;;58.70;20.40;;;11.90;64.00;;;;;;4937737;28;20609;-83
2022/02/18 10:40:03;;;;;;;64.15;23.42;;;11.90;64.00;;;;;;4940026;28;20411;-82
2022/02/18 10:42:29;;;;;;;68.70;25.20;;;12.00;64.00;;;;;;4954832;28;20514;-82
2022/02/18 10:45:11;;;;;;;71.30;25.85;;;12.00;64.10;;;;;;4939033;28;20043;-83
2022/02/18 10:47:38;;;;;;;82.78;29.90;;;12.00;64.10;;;;;;4970174;28;20043;-82
2022/02/18 10:50:25;;;;;;;92.57;32.03;;;12.00;64.10;;;;;;4940467;28;20039;-83
2022/02/18 10:53:09;;;;;;;90.43;31.77;;;11.90;64.10;;;;;;4940834;28;20123;-83
2022/02/18 10:55:50;;;;;;;95.03;35.33;;;12.00;64.20;;;;;;4942194;28;20457;-83
2022/02/18 10:58:21;;;;;;;92.20;35.03;;;12.00;64.10;;;;;;4955860;28;20130;-83
2022/02/18 11:01:00;;;;;;;102.95;37.05;;;12.00;64.10;;;;;;4940541;28;20030;-83
2022/02/18 11:03:25;;;;;;;105.22;38.83;;;12.00;64.10;;;;;;4970865;28;20055;-84
2022/02/18 11:05:52;;;;;;;107.07;39.55;;;12.00;64.10;;;;;;4925301;29;20035;-83
2022/02/18 11:08:31;;;;;;;108.78;40.38;;;12.00;64.00;;;;;;4922796;29;20051;-81
2022/02/18 11:11:07;;;;;;;105.47;40.28;;;12.00;64.00;;;;;;4956747;28;20427;-83
2022/02/18 11:13:35;;;;;;;104.45;37.75;;;12.00;63.80;;;;;;4939381;28;20075;-82
2022/02/18 11:16:02;;;;;;;110.05;40.22;;;12.00;63.80;;;;;;4939737;28;20118;-82
2022/02/18 11:18:29;;;;;;;101.82;37.17;;;12.00;64.30;;;;;;4954864;28;20040;-82
2022/02/18 11:20:56;;;;;;;99.38;37.08;;;12.00;63.60;;;;;;4940225;28;20066;-83
2022/02/18 11:23:22;;;;;;;105.15;37.90;;;12.00;63.60;;;;;;4970649;28;20520;-82
2022/02/18 11:25:48;;;;;;;106.93;40.60;;;12.10;63.60;;;;;;4954051;28;20284;-82
2022/02/18 11:28:15;;;;;;;104.65;39.47;;;12.10;63.60;;;;;;4954834;28;20047;-82
2022/02/18 11:30:47;;;;;;;106.32;40.97;;;12.10;63.60;;;;;;4934819;28;20491;-82
2022/02/18 11:33:42;;;;;;;101.05;39.30;;;12.10;63.60;;;;;;4939147;29;20043;-82
2022/02/18 11:36:14;;;;;;;106.05;40.45;;;12.10;63.60;;;;;;4939558;29;20102;-82
2022/02/18 11:38:49;;;;;;;100.55;38.42;;;12.10;63.50;;;;;;4943550;28;20514;-82
2022/02/18 11:41:40;;;;;;;94.85;37.25;;;12.10;63.50;;;;;;4938307;28;20174;-83
2022/02/18 11:44:08;;;;;;;94.35;37.13;;;12.10;63.50;;;;;;4938781;28;20032;-81
2022/02/18 11:46:34;;;;;;;46.00;18.67;;;12.20;63.50;;;;;;4939990;28;20093;-84
2022/02/18 11:49:01;;;;;;;23.77;9.38;;;12.10;60.60;;;;;;4955114;28;20035;-84
2022/02/18 11:51:39;;;;;;;34.55;14.88;;;11.90;57.00;;;;;;4939231;29;20034;-84
2022/02/18 11:54:22;;;;;;;33.85;13.93;;;11.70;58.20;;;;;;4941121;29;20035;-84
2022/02/18 11:56:54;;;;;;;27.50;10.18;;;11.50;58.30;;;;;;4939253;28;20035;-84
2022/02/18 11:59:20;;;;;;;23.27;7.35;;;11.40;58.60;;;;;;4939810;28;20055;-84
2022/02/18 12:01:58;;;;;;;13.43;5.82;;;11.30;57.30;;;;;;4937825;29;20036;-85
2022/02/18 12:04:24;;;;;;;14.02;5.88;;;11.20;56.60;;;;;;4938476;28;20031;-84
2022/02/18 12:07:24;;;;;;;7.35;3.80;;;11.10;56.80;;;;;;4937688;28;20066;-84
2022/02/18 12:09:50;;;;;;;10.80;3.95;;;11.10;55.90;;;;;;4970396;28;20511;-84
2022/02/18 12:12:25;;;;;;;3.97;2.30;;;11.00;56.40;;;;;;4943466;29;20030;-84
2022/02/18 12:14:55;;;;;;;4.30;2.30;;;11.00;55.50;;;;;;4938819;28;20059;-83
2022/02/18 12:17:22;;;;;;;2.15;1.52;;;10.90;55.40;;;;;;4952553;28;20293;-84
2022/02/18 12:19:48;;;;;;;4.55;1.63;;;10.90;53.60;;;;;;4942691;28;20594;-84
2022/02/18 12:22:34;;;;;;;4.40;2.00;;;10.80;54.60;;;;;;4937944;29;20130;-82
2022/02/18 12:25:01;;;;;;;;;;;10.70;54.60;;;;;;4938663;28;20039;-84
2022/02/18 12:27:34;;;;;;;1.88;1.05;;;10.70;53.50;;;;;;4939110;29;19922;-83
2022/02/18 12:30:22;;;;;;;1.63;1.05;;;10.50;53.10;;;;;;4921025;29;20039;-84
2022/02/18 12:32:53;;;;;;;2.15;0.80;;;10.50;53.00;;;;;;4952263;28;20039;-85
2022/02/18 12:35:28;;;;;;;4.47;2.20;;;10.50;54.20;;;;;;4934541;28;20097;-83
2022/02/18 12:37:59;;;;;;;5.95;3.83;;;10.50;53.00;;;;;;4936154;28;20062;-86
2022/02/18 12:40:27;;;;;;;6.10;2.00;;;10.60;52.80;;;;;;4938422;28;20038;-82
2022/02/18 12:43:05;;;;;;;1.58;0.95;;;10.60;53.40;;;;;;4934507;28;20043;-82
2022/02/18 12:45:53;;;;;;;3.58;1.60;;;10.70;53.60;;;;;;4936566;29;20114;-81
2022/02/18 12:48:30;;;;;;;2.50;1.35;;;10.90;53.20;;;;;;4937331;29;20047;-81
2022/02/18 12:50:59;;;;;;;2.70;1.40;;;11.00;52.80;;;;;;4936269;28;20036;-82